Revelstoke Airport
CYRV : now visible

Airfield :











YOU CAN JOIN US ON...

 
LOGIN :

Register | Disclaimer

   EN    FR    IT 

 









Legend :    VFR   Marginal VFR   IFR   Intensive IFR   Very Intensive IFR
Visi :
Ceiling :
>= 8 km
>= 3000ft
5 to 8 km
1000 to 3000 ft
1500m to 5 km
500 to 1000 ft
800 to 1500m
200 to 500 ft
< 800m
< 200 ft
Symbols :   Thunderstorms  Fog  Heavy snow  Heavy precipitations  Wind > 20 kt






- Airport Elevation : 1459 ft
- IATA code : YRV


CYRV - Revelstoke

CURRENT METAR :
  • 111900Z AUTO 16002KT 9SM SCT035 OVC045 01/M03 A3052 RMK SLP356

EXPIRED METARs :
  • 111844Z AUTO 00000KT 9SM BKN033 OVC045 01/M04 A3053 RMK SLP359
  • 111800Z AUTO VRB02KT 9SM BKN034 OVC044 01/M03 A3054 RMK SLP364
  • 111744Z AUTO 00000KT 9SM BKN036 OVC044 01/M03 A3055 RMK SLP367
  • 111728Z AUTO VRB02KT 9SM OVC040 00/M04 A3055 RMK SLP367
  • 111700Z AUTO VRB02KT 9SM OVC037 00/M03 A3055 RMK SLP367

TAF N/A



MET'MAP, your aeronautical weather chart ! - Copyright ORBIFLY December 2007 - Disclaimer

ORBIFLY MET'MAP TEAM :

Programming & Development : Alexandra Zaïnal
Concept & Development : Baudouin d'Aumeries
Co-Development & Prog : Marc-Olivier Méhu
Technical & hardware support : Manuel Goepfert

Contact : metmap@orbifly.com




SOURCES & CREDITS :

   NOAA       Earth
Advisory